Spicer, MN (56288)

8:53 AM CST on December 22, 2014 (GMT -0600)
Sibley | Change Station
CLOSE
Current Station
Personal Weather Station
Location: New London, MN
Elevation: 1260 ft
Nearby Weather Stations

Elev 1260 ft 45.33 °N, 95.01 °W | Updated 3 seconds ago

Overcast
Overcast
36.3 °F
Feels Like 30 °F
N
8.3
Wind Variable Wind from SE

Today
High -- | Low -- °F
--% Chance of Precip.
Yesterday
High -- | Low -- °F
Precip. -- in
7:56 AM 4:40 PM
New Moon, 0% visible
Pressure 29.56 in
Visibility 5.0 miles
Clouds Overcast 400 ft
Windchill 30 °F
Dew Point 36 °F
Humidity 97%
Rainfall 0.05 in
Snow Depth Not available.
UV 0 out of 12
Pollen .10 out of 12
Air Quality Not available.
Flu Activity Not available.
METAR KBDH 221435Z AUTO 14014KT 5SM -RA OVC004 03/02 A2956 RMK AO2 P0001

More Conditions Fewer Conditions

Pressure 29.56 in
Visibility 5.0 miles
Clouds Overcast 400 ft
Windchill 30 °F
Dew Point 36 °F
Humidity 97%
Rainfall 0.05 in
Snow Depth Not available.
UV 0 out of 12
Pollen .10 out of 12
Air Quality Not available.
Flu Activity Not available.
METAR KBDH 221435Z AUTO 14014KT 5SM -RA OVC004 03/02 A2956 RMK AO2 P0001

More Conditions Fewer Conditions

10-Day Weather Forecast

Almanac

Astronomy

Dec. 22, 2014 Rise Set
Actual Time
Civil Twilight
Nautical Twilight
Astronomical Twilight
Moon
Length of Visible Light
Length of Day
Tomorrow will be .
, % of the Moon is Illuminated

Today's Extremes

State Highs State Lows

Community

WunderPhotos

Upload Photos

1,779,608 photos uploaded!

WunderBlogs® & News

Nearby

Air Quality

  Air Quality AQ Index Pollutant
Not available.

Snow Depth

Station Depth Elevation

Earthquake Activity

City Distance Mag. Time & Date
Minimum magnitude displayed is 2.5.

Coastal Water Temperatures

Place Temperature

Nearby Weather Stations